CheckWX is a tool to help pilots better visualize weather data.  It is not intended as a substitute for an official pre-flight weather briefing.

13:26:37 UTC

KSBN TAF
South Bend International Airport
South Bend, Indiana, USA
KSBN 201120Z 2012/2112 29013G20KT P6SM BKN018 FM201800 32011G18KT P6SM BKN035 FM210100 33004KT P6SM SKC

May-20@
12:00 UTC

May-20 @ 12:00 UTC

May-20@
18:00 UTC

May-20 @ 18:00 UTC

KSBN 201120Z 2012/2112 29013G20KT P6SM BKN018
Wind
  • 290° at 13 KTS
  • {Gusting to 20 KTS
Cloud Levels
  • Broken at 1,800' AGL

May-20@
18:00 UTC

May-20 @ 18:00 UTC

May-21@
01:00 UTC

May-21 @ 01:00 UTC

FM201800 32011G18KT P6SM BKN035

From

From Standard forecast or significant change

Wind
  • 320° at 11 KTS
  • {Gusting to 18 KTS
Cloud Levels
  • Broken at 3,500' AGL

May-21@
01:00 UTC

May-21 @ 01:00 UTC

May-21@
12:00 UTC

May-21 @ 12:00 UTC

FM210100 33004KT P6SM SKC

From

From Standard forecast or significant change

Wind
  • 330° at 4 KTS
Cloud Levels
  • Clear skies